sensor_id;sensor_type;location;lat;lon;timestamp;P1;durP1;ratioP1;P2;durP2;ratioP2
22677;SDS011;26259;50.214;18.620;2023-04-03T00:01:29;30.77;;;20.23;;
22677;SDS011;26259;50.214;18.620;2023-04-03T00:03:55;31.53;;;20.60;;
22677;SDS011;26259;50.214;18.620;2023-04-03T00:06:21;30.80;;;20.47;;
22677;SDS011;26259;50.214;18.620;2023-04-03T00:08:47;32.10;;;21.13;;
22677;SDS011;26259;50.214;18.620;2023-04-03T00:11:13;29.60;;;21.17;;
22677;SDS011;26259;50.214;18.620;2023-04-03T00:13:40;33.03;;;22.87;;
22677;SDS011;26259;50.214;18.620;2023-04-03T00:16:07;25.60;;;18.50;;
22677;SDS011;26259;50.214;18.620;2023-04-03T00:18:33;29.43;;;21.23;;
22677;SDS011;26259;50.214;18.620;2023-04-03T00:20:59;30.63;;;21.57;;
22677;SDS011;26259;50.214;18.620;2023-04-03T00:23:24;29.60;;;21.83;;
22677;SDS011;26259;50.214;18.620;2023-04-03T00:25:50;27.43;;;20.13;;
22677;SDS011;26259;50.214;18.620;2023-04-03T00:28:16;27.83;;;20.03;;
22677;SDS011;26259;50.214;18.620;2023-04-03T00:30:42;30.33;;;20.50;;
22677;SDS011;26259;50.214;18.620;2023-04-03T00:33:08;34.27;;;22.47;;
22677;SDS011;26259;50.214;18.620;2023-04-03T00:35:38;36.93;;;23.37;;
22677;SDS011;26259;50.214;18.620;2023-04-03T00:38:03;29.80;;;19.63;;
22677;SDS011;26259;50.214;18.620;2023-04-03T00:40:32;30.20;;;21.90;;
22677;SDS011;26259;50.214;18.620;2023-04-03T00:43:05;31.90;;;22.03;;
22677;SDS011;26259;50.214;18.620;2023-04-03T00:45:38;31.97;;;21.60;;
22677;SDS011;26259;50.214;18.620;2023-04-03T00:48:07;22.93;;;18.60;;
22677;SDS011;26259;50.214;18.620;2023-04-03T00:50:35;27.33;;;18.77;;
22677;SDS011;26259;50.214;18.620;2023-04-03T00:53:03;25.67;;;17.17;;
22677;SDS011;26259;50.214;18.620;2023-04-03T00:55:31;28.37;;;16.53;;
22677;SDS011;26259;50.214;18.620;2023-04-03T00:57:57;22.13;;;15.57;;
22677;SDS011;26259;50.214;18.620;2023-04-03T01:00:25;27.57;;;16.10;;
22677;SDS011;26259;50.214;18.620;2023-04-03T01:02:51;20.17;;;14.40;;
22677;SDS011;26259;50.214;18.620;2023-04-03T01:05:17;23.40;;;15.77;;
22677;SDS011;26259;50.214;18.620;2023-04-03T01:07:45;20.93;;;14.50;;
22677;SDS011;26259;50.214;18.620;2023-04-03T01:10:13;24.70;;;15.53;;
22677;SDS011;26259;50.214;18.620;2023-04-03T01:12:41;19.40;;;12.37;;
22677;SDS011;26259;50.214;18.620;2023-04-03T01:15:11;24.73;;;14.67;;
22677;SDS011;26259;50.214;18.620;2023-04-03T01:17:44;20.87;;;13.47;;
22677;SDS011;26259;50.214;18.620;2023-04-03T01:25:32;19.80;;;12.23;;
22677;SDS011;26259;50.214;18.620;2023-04-03T01:27:59;25.03;;;12.57;;
22677;SDS011;26259;50.214;18.620;2023-04-03T01:30:27;14.90;;;10.33;;
22677;SDS011;26259;50.214;18.620;2023-04-03T01:32:57;17.90;;;11.13;;
22677;SDS011;26259;50.214;18.620;2023-04-03T01:35:22;21.20;;;11.97;;
22677;SDS011;26259;50.214;18.620;2023-04-03T01:37:48;18.40;;;10.10;;
22677;SDS011;26259;50.214;18.620;2023-04-03T01:40:14;18.37;;;10.80;;
22677;SDS011;26259;50.214;18.620;2023-04-03T01:42:40;16.30;;;8.97;;
22677;SDS011;26259;50.214;18.620;2023-04-03T01:45:05;15.50;;;8.70;;
22677;SDS011;26259;50.214;18.620;2023-04-03T01:47:31;13.53;;;7.00;;
22677;SDS011;26259;50.214;18.620;2023-04-03T01:49:57;12.03;;;6.70;;
22677;SDS011;26259;50.214;18.620;2023-04-03T01:52:22;11.67;;;7.50;;
22677;SDS011;26259;50.214;18.620;2023-04-03T01:54:48;14.17;;;7.97;;
22677;SDS011;26259;50.214;18.620;2023-04-03T01:57:14;12.63;;;6.83;;
22677;SDS011;26259;50.214;18.620;2023-04-03T01:59:40;16.20;;;7.67;;
22677;SDS011;26259;50.214;18.620;2023-04-03T02:02:06;10.47;;;7.70;;
22677;SDS011;26259;50.214;18.620;2023-04-03T02:04:31;22.00;;;8.73;;
22677;SDS011;26259;50.214;18.620;2023-04-03T02:06:57;15.90;;;6.90;;
22677;SDS011;26259;50.214;18.620;2023-04-03T02:09:22;14.40;;;7.33;;
22677;SDS011;26259;50.214;18.620;2023-04-03T02:11:48;12.43;;;6.60;;
22677;SDS011;26259;50.214;18.620;2023-04-03T02:14:14;13.67;;;7.10;;
22677;SDS011;26259;50.214;18.620;2023-04-03T02:16:39;13.27;;;7.47;;
22677;SDS011;26259;50.214;18.620;2023-04-03T02:19:05;13.30;;;6.83;;
22677;SDS011;26259;50.214;18.620;2023-04-03T02:21:31;15.10;;;7.03;;
22677;SDS011;26259;50.214;18.620;2023-04-03T02:23:57;10.77;;;6.90;;
22677;SDS011;26259;50.214;18.620;2023-04-03T02:26:22;12.17;;;6.37;;
22677;SDS011;26259;50.214;18.620;2023-04-03T02:28:48;12.10;;;7.00;;
22677;SDS011;26259;50.214;18.620;2023-04-03T02:31:14;11.20;;;6.30;;
22677;SDS011;26259;50.214;18.620;2023-04-03T02:33:39;13.33;;;6.97;;
22677;SDS011;26259;50.214;18.620;2023-04-03T02:36:06;10.17;;;6.33;;
22677;SDS011;26259;50.214;18.620;2023-04-03T02:38:33;16.13;;;6.93;;
22677;SDS011;26259;50.214;18.620;2023-04-03T02:40:59;16.27;;;7.57;;
22677;SDS011;26259;50.214;18.620;2023-04-03T02:43:28;10.27;;;5.17;;
22677;SDS011;26259;50.214;18.620;2023-04-03T02:45:55;11.23;;;6.00;;
22677;SDS011;26259;50.214;18.620;2023-04-03T02:48:21;10.63;;;6.40;;
22677;SDS011;26259;50.214;18.620;2023-04-03T02:50:47;11.60;;;5.07;;
22677;SDS011;26259;50.214;18.620;2023-04-03T02:53:12;7.73;;;4.20;;
22677;SDS011;26259;50.214;18.620;2023-04-03T02:55:38;12.50;;;4.90;;
22677;SDS011;26259;50.214;18.620;2023-04-03T02:58:04;11.50;;;4.73;;
22677;SDS011;26259;50.214;18.620;2023-04-03T03:00:30;10.20;;;4.60;;
22677;SDS011;26259;50.214;18.620;2023-04-03T03:02:55;10.37;;;4.93;;
22677;SDS011;26259;50.214;18.620;2023-04-03T03:05:21;10.37;;;4.90;;
22677;SDS011;26259;50.214;18.620;2023-04-03T03:07:46;11.50;;;6.00;;
22677;SDS011;26259;50.214;18.620;2023-04-03T03:10:12;10.50;;;5.27;;
22677;SDS011;26259;50.214;18.620;2023-04-03T03:12:38;13.83;;;6.10;;
22677;SDS011;26259;50.214;18.620;2023-04-03T03:15:05;12.87;;;6.07;;
22677;SDS011;26259;50.214;18.620;2023-04-03T03:17:32;11.70;;;5.70;;
22677;SDS011;26259;50.214;18.620;2023-04-03T03:19:57;63.00;;;20.10;;
22677;SDS011;26259;50.214;18.620;2023-04-03T03:22:23;24.93;;;9.17;;
22677;SDS011;26259;50.214;18.620;2023-04-03T03:24:49;19.87;;;7.47;;
22677;SDS011;26259;50.214;18.620;2023-04-03T03:27:14;22.27;;;9.13;;
22677;SDS011;26259;50.214;18.620;2023-04-03T03:29:41;30.33;;;10.67;;
22677;SDS011;26259;50.214;18.620;2023-04-03T03:32:07;20.37;;;6.20;;
22677;SDS011;26259;50.214;18.620;2023-04-03T03:34:32;32.83;;;10.47;;
22677;SDS011;26259;50.214;18.620;2023-04-03T03:36:58;46.73;;;11.30;;
22677;SDS011;26259;50.214;18.620;2023-04-03T03:39:24;39.97;;;11.50;;
22677;SDS011;26259;50.214;18.620;2023-04-03T03:41:50;31.60;;;11.43;;
22677;SDS011;26259;50.214;18.620;2023-04-03T03:44:16;17.13;;;6.77;;
22677;SDS011;26259;50.214;18.620;2023-04-03T03:46:41;40.67;;;13.50;;
22677;SDS011;26259;50.214;18.620;2023-04-03T03:49:07;23.73;;;7.77;;
22677;SDS011;26259;50.214;18.620;2023-04-03T03:51:32;33.37;;;10.83;;
22677;SDS011;26259;50.214;18.620;2023-04-03T03:53:58;38.53;;;11.87;;
22677;SDS011;26259;50.214;18.620;2023-04-03T03:56:24;34.50;;;10.87;;
22677;SDS011;26259;50.214;18.620;2023-04-03T03:58:50;31.70;;;10.37;;
22677;SDS011;26259;50.214;18.620;2023-04-03T04:01:15;25.60;;;9.63;;
22677;SDS011;26259;50.214;18.620;2023-04-03T04:03:42;31.53;;;8.60;;
22677;SDS011;26259;50.214;18.620;2023-04-03T04:06:07;35.93;;;10.67;;
22677;SDS011;26259;50.214;18.620;2023-04-03T04:08:33;17.33;;;6.17;;
22677;SDS011;26259;50.214;18.620;2023-04-03T04:10:58;46.17;;;12.70;;
22677;SDS011;26259;50.214;18.620;2023-04-03T04:13:24;25.30;;;7.80;;
22677;SDS011;26259;50.214;18.620;2023-04-03T04:15:50;20.30;;;6.97;;
22677;SDS011;26259;50.214;18.620;2023-04-03T04:18:15;11.70;;;5.57;;
22677;SDS011;26259;50.214;18.620;2023-04-03T04:20:44;9.40;;;4.50;;
22677;SDS011;26259;50.214;18.620;2023-04-03T04:23:10;25.17;;;10.00;;
22677;SDS011;26259;50.214;18.620;2023-04-03T04:25:36;23.70;;;8.33;;
22677;SDS011;26259;50.214;18.620;2023-04-03T04:28:01;41.67;;;11.03;;
22677;SDS011;26259;50.214;18.620;2023-04-03T04:30:27;11.73;;;5.57;;
22677;SDS011;26259;50.214;18.620;2023-04-03T04:32:52;36.73;;;10.90;;
22677;SDS011;26259;50.214;18.620;2023-04-03T04:35:18;22.00;;;7.77;;
22677;SDS011;26259;50.214;18.620;2023-04-03T04:37:44;32.17;;;10.23;;
22677;SDS011;26259;50.214;18.620;2023-04-03T04:40:09;19.67;;;6.30;;
22677;SDS011;26259;50.214;18.620;2023-04-03T04:42:35;15.83;;;6.00;;
22677;SDS011;26259;50.214;18.620;2023-04-03T04:45:01;25.60;;;9.20;;
22677;SDS011;26259;50.214;18.620;2023-04-03T04:47:27;16.90;;;6.37;;
22677;SDS011;26259;50.214;18.620;2023-04-03T04:49:54;37.57;;;10.67;;
22677;SDS011;26259;50.214;18.620;2023-04-03T04:52:20;33.00;;;11.53;;
22677;SDS011;26259;50.214;18.620;2023-04-03T04:54:46;25.60;;;10.07;;
22677;SDS011;26259;50.214;18.620;2023-04-03T04:57:11;19.20;;;7.20;;
22677;SDS011;26259;50.214;18.620;2023-04-03T04:59:37;21.87;;;9.47;;
22677;SDS011;26259;50.214;18.620;2023-04-03T05:02:02;37.87;;;12.27;;
22677;SDS011;26259;50.214;18.620;2023-04-03T05:04:28;23.13;;;7.70;;
22677;SDS011;26259;50.214;18.620;2023-04-03T05:06:53;35.90;;;9.70;;
22677;SDS011;26259;50.214;18.620;2023-04-03T05:09:19;35.20;;;10.43;;
22677;SDS011;26259;50.214;18.620;2023-04-03T05:11:45;27.13;;;9.40;;
22677;SDS011;26259;50.214;18.620;2023-04-03T05:14:11;31.07;;;10.30;;
22677;SDS011;26259;50.214;18.620;2023-04-03T05:16:36;32.67;;;10.80;;
22677;SDS011;26259;50.214;18.620;2023-04-03T05:19:02;37.87;;;13.17;;
22677;SDS011;26259;50.214;18.620;2023-04-03T05:21:28;40.27;;;12.10;;
22677;SDS011;26259;50.214;18.620;2023-04-03T05:23:57;26.03;;;8.50;;
22677;SDS011;26259;50.214;18.620;2023-04-03T05:26:24;22.23;;;9.33;;
22677;SDS011;26259;50.214;18.620;2023-04-03T05:28:50;35.30;;;12.20;;
22677;SDS011;26259;50.214;18.620;2023-04-03T05:31:16;35.10;;;12.77;;
22677;SDS011;26259;50.214;18.620;2023-04-03T05:33:41;32.80;;;10.73;;
22677;SDS011;26259;50.214;18.620;2023-04-03T05:36:07;28.30;;;10.03;;
22677;SDS011;26259;50.214;18.620;2023-04-03T05:38:33;32.87;;;11.17;;
22677;SDS011;26259;50.214;18.620;2023-04-03T05:40:59;20.60;;;6.80;;
22677;SDS011;26259;50.214;18.620;2023-04-03T05:43:24;32.33;;;11.03;;
22677;SDS011;26259;50.214;18.620;2023-04-03T05:45:50;14.93;;;7.17;;
22677;SDS011;26259;50.214;18.620;2023-04-03T05:48:17;34.83;;;12.23;;
22677;SDS011;26259;50.214;18.620;2023-04-03T05:50:42;32.23;;;11.83;;
22677;SDS011;26259;50.214;18.620;2023-04-03T05:53:41;14.00;;;6.10;;
22677;SDS011;26259;50.214;18.620;2023-04-03T05:56:02;12.33;;;5.53;;
22677;SDS011;26259;50.214;18.620;2023-04-03T05:58:28;18.67;;;7.77;;
22677;SDS011;26259;50.214;18.620;2023-04-03T06:00:54;15.60;;;5.73;;
22677;SDS011;26259;50.214;18.620;2023-04-03T06:03:20;13.27;;;5.07;;
22677;SDS011;26259;50.214;18.620;2023-04-03T06:05:45;29.33;;;10.57;;
22677;SDS011;26259;50.214;18.620;2023-04-03T06:08:11;36.10;;;11.30;;
22677;SDS011;26259;50.214;18.620;2023-04-03T06:10:37;25.57;;;8.43;;
22677;SDS011;26259;50.214;18.620;2023-04-03T06:13:03;26.20;;;8.83;;
22677;SDS011;26259;50.214;18.620;2023-04-03T06:15:29;28.67;;;10.13;;
22677;SDS011;26259;50.214;18.620;2023-04-03T06:17:55;19.30;;;7.50;;
22677;SDS011;26259;50.214;18.620;2023-04-03T06:20:21;18.60;;;7.47;;
22677;SDS011;26259;50.214;18.620;2023-04-03T06:22:47;21.13;;;7.20;;
22677;SDS011;26259;50.214;18.620;2023-04-03T06:25:12;14.50;;;5.20;;
22677;SDS011;26259;50.214;18.620;2023-04-03T06:27:39;11.13;;;5.07;;
22677;SDS011;26259;50.214;18.620;2023-04-03T06:30:05;20.73;;;7.50;;
22677;SDS011;26259;50.214;18.620;2023-04-03T06:32:31;15.50;;;6.40;;
22677;SDS011;26259;50.214;18.620;2023-04-03T06:34:57;13.57;;;5.27;;
22677;SDS011;26259;50.214;18.620;2023-04-03T06:37:23;14.80;;;5.37;;
22677;SDS011;26259;50.214;18.620;2023-04-03T06:39:51;9.17;;;4.57;;
22677;SDS011;26259;50.214;18.620;2023-04-03T06:42:17;18.53;;;6.37;;
22677;SDS011;26259;50.214;18.620;2023-04-03T06:44:43;10.40;;;4.97;;
22677;SDS011;26259;50.214;18.620;2023-04-03T06:47:12;10.93;;;4.77;;
22677;SDS011;26259;50.214;18.620;2023-04-03T06:49:39;11.07;;;4.53;;
22677;SDS011;26259;50.214;18.620;2023-04-03T06:52:06;19.10;;;6.37;;
22677;SDS011;26259;50.214;18.620;2023-04-03T06:54:32;10.97;;;4.20;;
22677;SDS011;26259;50.214;18.620;2023-04-03T06:56:57;14.17;;;4.87;;
22677;SDS011;26259;50.214;18.620;2023-04-03T06:59:23;13.83;;;5.60;;
22677;SDS011;26259;50.214;18.620;2023-04-03T07:01:49;7.07;;;3.60;;
22677;SDS011;26259;50.214;18.620;2023-04-03T07:04:16;9.60;;;4.90;;
22677;SDS011;26259;50.214;18.620;2023-04-03T07:06:41;10.30;;;4.27;;
22677;SDS011;26259;50.214;18.620;2023-04-03T07:09:08;8.83;;;4.60;;
22677;SDS011;26259;50.214;18.620;2023-04-03T07:11:34;8.83;;;3.50;;
22677;SDS011;26259;50.214;18.620;2023-04-03T07:14:01;6.57;;;3.33;;
22677;SDS011;26259;50.214;18.620;2023-04-03T07:16:28;6.60;;;3.30;;
22677;SDS011;26259;50.214;18.620;2023-04-03T07:18:55;9.47;;;3.23;;
22677;SDS011;26259;50.214;18.620;2023-04-03T07:21:22;10.73;;;4.90;;
22677;SDS011;26259;50.214;18.620;2023-04-03T07:23:48;7.60;;;3.90;;
22677;SDS011;26259;50.214;18.620;2023-04-03T07:26:13;6.93;;;2.90;;
22677;SDS011;26259;50.214;18.620;2023-04-03T07:28:39;7.90;;;3.60;;
22677;SDS011;26259;50.214;18.620;2023-04-03T07:31:06;6.20;;;2.90;;
22677;SDS011;26259;50.214;18.620;2023-04-03T07:33:36;4.47;;;3.50;;
22677;SDS011;26259;50.214;18.620;2023-04-03T07:36:02;6.50;;;3.73;;
22677;SDS011;26259;50.214;18.620;2023-04-03T07:38:28;7.03;;;3.50;;
22677;SDS011;26259;50.214;18.620;2023-04-03T07:40:54;7.90;;;4.30;;
22677;SDS011;26259;50.214;18.620;2023-04-03T07:43:20;9.47;;;3.83;;
22677;SDS011;26259;50.214;18.620;2023-04-03T07:45:47;9.37;;;3.80;;
22677;SDS011;26259;50.214;18.620;2023-04-03T07:48:22;8.93;;;2.97;;
22677;SDS011;26259;50.214;18.620;2023-04-03T07:50:49;7.67;;;3.47;;
22677;SDS011;26259;50.214;18.620;2023-04-03T07:53:15;9.53;;;3.53;;
22677;SDS011;26259;50.214;18.620;2023-04-03T07:55:41;8.80;;;3.83;;
22677;SDS011;26259;50.214;18.620;2023-04-03T07:58:10;5.53;;;3.60;;
22677;SDS011;26259;50.214;18.620;2023-04-03T08:00:38;4.73;;;2.87;;
22677;SDS011;26259;50.214;18.620;2023-04-03T08:03:04;10.23;;;5.37;;
22677;SDS011;26259;50.214;18.620;2023-04-03T08:05:30;8.67;;;3.23;;
22677;SDS011;26259;50.214;18.620;2023-04-03T08:07:56;12.53;;;4.07;;
22677;SDS011;26259;50.214;18.620;2023-04-03T08:10:22;5.77;;;3.37;;
22677;SDS011;26259;50.214;18.620;2023-04-03T08:12:48;8.70;;;3.90;;
22677;SDS011;26259;50.214;18.620;2023-04-03T08:15:14;7.40;;;3.93;;
22677;SDS011;26259;50.214;18.620;2023-04-03T08:17:39;8.07;;;5.03;;
22677;SDS011;26259;50.214;18.620;2023-04-03T08:20:06;7.70;;;3.77;;
22677;SDS011;26259;50.214;18.620;2023-04-03T08:22:33;7.87;;;3.73;;
22677;SDS011;26259;50.214;18.620;2023-04-03T08:24:59;9.53;;;5.67;;
22677;SDS011;26259;50.214;18.620;2023-04-03T08:27:26;8.97;;;3.30;;
22677;SDS011;26259;50.214;18.620;2023-04-03T08:29:52;8.13;;;3.03;;
22677;SDS011;26259;50.214;18.620;2023-04-03T08:32:17;4.50;;;2.27;;
22677;SDS011;26259;50.214;18.620;2023-04-03T08:34:43;3.33;;;1.87;;
22677;SDS011;26259;50.214;18.620;2023-04-03T08:37:09;2.70;;;1.50;;
22677;SDS011;26259;50.214;18.620;2023-04-03T08:39:35;3.77;;;1.67;;
22677;SDS011;26259;50.214;18.620;2023-04-03T08:42:02;2.57;;;1.73;;
22677;SDS011;26259;50.214;18.620;2023-04-03T08:47:53;6.00;;;2.40;;
22677;SDS011;26259;50.214;18.620;2023-04-03T08:50:50;5.53;;;2.40;;
22677;SDS011;26259;50.214;18.620;2023-04-03T08:53:24;3.90;;;2.00;;
22677;SDS011;26259;50.214;18.620;2023-04-03T08:55:53;15.50;;;5.97;;
22677;SDS011;26259;50.214;18.620;2023-04-03T08:58:30;12.03;;;5.17;;
22677;SDS011;26259;50.214;18.620;2023-04-03T09:01:06;17.97;;;5.37;;
22677;SDS011;26259;50.214;18.620;2023-04-03T09:03:45;6.63;;;2.77;;
22677;SDS011;26259;50.214;18.620;2023-04-03T09:06:13;2.30;;;1.43;;
22677;SDS011;26259;50.214;18.620;2023-04-03T09:20:11;5.07;;;2.10;;
22677;SDS011;26259;50.214;18.620;2023-04-03T09:22:42;5.97;;;2.07;;
22677;SDS011;26259;50.214;18.620;2023-04-03T09:25:20;7.40;;;2.40;;
22677;SDS011;26259;50.214;18.620;2023-04-03T09:27:54;2.10;;;1.27;;
22677;SDS011;26259;50.214;18.620;2023-04-03T09:30:22;2.77;;;1.30;;
22677;SDS011;26259;50.214;18.620;2023-04-03T09:32:50;3.20;;;2.07;;
22677;SDS011;26259;50.214;18.620;2023-04-03T09:37:44;3.50;;;1.33;;
22677;SDS011;26259;50.214;18.620;2023-04-03T09:42:54;4.43;;;3.00;;
22677;SDS011;26259;50.214;18.620;2023-04-03T09:45:25;3.37;;;1.60;;
22677;SDS011;26259;50.214;18.620;2023-04-03T09:48:37;4.23;;;1.53;;
22677;SDS011;26259;50.214;18.620;2023-04-03T09:50:38;4.63;;;2.10;;
22677;SDS011;26259;50.214;18.620;2023-04-03T09:56:02;2.03;;;1.70;;
22677;SDS011;26259;50.214;18.620;2023-04-03T09:58:40;4.77;;;1.90;;
22677;SDS011;26259;50.214;18.620;2023-04-03T10:06:44;2.03;;;1.47;;
22677;SDS011;26259;50.214;18.620;2023-04-03T10:14:34;3.97;;;1.63;;
22677;SDS011;26259;50.214;18.620;2023-04-03T10:22:03;3.83;;;1.37;;
22677;SDS011;26259;50.214;18.620;2023-04-03T10:35:59;3.97;;;1.70;;
22677;SDS011;26259;50.214;18.620;2023-04-03T10:46:53;3.13;;;1.73;;
22677;SDS011;26259;50.214;18.620;2023-04-03T10:52:39;4.50;;;2.00;;
22677;SDS011;26259;50.214;18.620;2023-04-03T10:57:52;4.53;;;2.13;;
22677;SDS011;26259;50.214;18.620;2023-04-03T11:00:35;4.17;;;1.80;;
22677;SDS011;26259;50.214;18.620;2023-04-03T11:03:14;3.07;;;2.07;;
22677;SDS011;26259;50.214;18.620;2023-04-03T11:05:51;2.47;;;1.83;;
22677;SDS011;26259;50.214;18.620;2023-04-03T11:11:35;3.37;;;1.80;;
22677;SDS011;26259;50.214;18.620;2023-04-03T11:14:14;3.83;;;1.63;;
22677;SDS011;26259;50.214;18.620;2023-04-03T11:16:47;2.00;;;1.40;;
22677;SDS011;26259;50.214;18.620;2023-04-03T11:19:17;2.03;;;1.33;;
22677;SDS011;26259;50.214;18.620;2023-04-03T11:21:51;6.17;;;1.77;;
22677;SDS011;26259;50.214;18.620;2023-04-03T11:24:33;3.50;;;1.77;;
22677;SDS011;26259;50.214;18.620;2023-04-03T11:27:03;2.90;;;1.57;;
22677;SDS011;26259;50.214;18.620;2023-04-03T11:29:36;4.03;;;2.00;;
22677;SDS011;26259;50.214;18.620;2023-04-03T11:35:18;6.80;;;2.00;;
22677;SDS011;26259;50.214;18.620;2023-04-03T11:37:47;4.90;;;1.77;;
22677;SDS011;26259;50.214;18.620;2023-04-03T11:42:45;5.00;;;2.30;;
22677;SDS011;26259;50.214;18.620;2023-04-03T11:47:59;4.10;;;1.73;;
22677;SDS011;26259;50.214;18.620;2023-04-03T12:08:27;2.80;;;1.37;;
22677;SDS011;26259;50.214;18.620;2023-04-03T12:46:14;2.17;;;1.50;;
22677;SDS011;26259;50.214;18.620;2023-04-03T12:48:48;2.53;;;1.87;;
22677;SDS011;26259;50.214;18.620;2023-04-03T12:51:20;3.00;;;1.83;;
22677;SDS011;26259;50.214;18.620;2023-04-03T12:54:13;3.87;;;1.77;;
22677;SDS011;26259;50.214;18.620;2023-04-03T12:56:41;3.63;;;1.90;;
22677;SDS011;26259;50.214;18.620;2023-04-03T12:59:23;4.23;;;1.93;;
22677;SDS011;26259;50.214;18.620;2023-04-03T13:01:54;3.03;;;1.40;;
22677;SDS011;26259;50.214;18.620;2023-04-03T13:04:21;4.27;;;1.97;;
22677;SDS011;26259;50.214;18.620;2023-04-03T13:06:47;4.00;;;1.77;;
22677;SDS011;26259;50.214;18.620;2023-04-03T13:09:32;3.43;;;1.57;;
22677;SDS011;26259;50.214;18.620;2023-04-03T13:11:59;2.70;;;1.80;;
22677;SDS011;26259;50.214;18.620;2023-04-03T13:14:28;2.90;;;1.50;;
22677;SDS011;26259;50.214;18.620;2023-04-03T13:16:59;2.83;;;1.67;;
22677;SDS011;26259;50.214;18.620;2023-04-03T13:19:29;3.43;;;1.73;;
22677;SDS011;26259;50.214;18.620;2023-04-03T13:22:38;3.40;;;1.70;;
22677;SDS011;26259;50.214;18.620;2023-04-03T13:24:52;4.60;;;2.27;;
22677;SDS011;26259;50.214;18.620;2023-04-03T13:27:20;5.93;;;2.20;;
22677;SDS011;26259;50.214;18.620;2023-04-03T13:29:50;2.83;;;1.70;;
22677;SDS011;26259;50.214;18.620;2023-04-03T13:32:19;2.33;;;1.80;;
22677;SDS011;26259;50.214;18.620;2023-04-03T13:34:47;3.23;;;1.80;;
22677;SDS011;26259;50.214;18.620;2023-04-03T13:37:20;2.97;;;2.00;;
22677;SDS011;26259;50.214;18.620;2023-04-03T13:40:27;2.37;;;1.53;;
22677;SDS011;26259;50.214;18.620;2023-04-03T13:42:45;4.77;;;2.13;;
22677;SDS011;26259;50.214;18.620;2023-04-03T13:45:27;2.50;;;1.63;;
22677;SDS011;26259;50.214;18.620;2023-04-03T13:48:07;5.40;;;2.00;;
22677;SDS011;26259;50.214;18.620;2023-04-03T13:50:49;3.13;;;1.93;;
22677;SDS011;26259;50.214;18.620;2023-04-03T13:53:23;2.17;;;1.60;;
22677;SDS011;26259;50.214;18.620;2023-04-03T13:55:55;3.77;;;2.50;;
22677;SDS011;26259;50.214;18.620;2023-04-03T13:58:23;4.57;;;1.87;;
22677;SDS011;26259;50.214;18.620;2023-04-03T14:00:54;3.23;;;1.80;;
22677;SDS011;26259;50.214;18.620;2023-04-03T14:03:29;4.43;;;1.80;;
22677;SDS011;26259;50.214;18.620;2023-04-03T14:06:30;2.87;;;2.07;;
22677;SDS011;26259;50.214;18.620;2023-04-03T14:08:56;4.20;;;1.90;;
22677;SDS011;26259;50.214;18.620;2023-04-03T14:11:22;4.10;;;2.00;;
22677;SDS011;26259;50.214;18.620;2023-04-03T14:13:52;5.07;;;1.90;;
22677;SDS011;26259;50.214;18.620;2023-04-03T14:16:19;2.83;;;2.10;;
22677;SDS011;26259;50.214;18.620;2023-04-03T14:18:47;3.70;;;2.13;;
22677;SDS011;26259;50.214;18.620;2023-04-03T14:21:16;5.33;;;2.40;;
22677;SDS011;26259;50.214;18.620;2023-04-03T14:23:44;4.17;;;2.40;;
22677;SDS011;26259;50.214;18.620;2023-04-03T14:26:13;3.20;;;1.90;;
22677;SDS011;26259;50.214;18.620;2023-04-03T14:28:42;2.80;;;1.90;;
22677;SDS011;26259;50.214;18.620;2023-04-03T14:31:13;3.60;;;1.97;;
22677;SDS011;26259;50.214;18.620;2023-04-03T14:33:39;4.67;;;1.90;;
22677;SDS011;26259;50.214;18.620;2023-04-03T14:36:15;2.93;;;1.73;;
22677;SDS011;26259;50.214;18.620;2023-04-03T14:38:43;4.07;;;2.80;;
22677;SDS011;26259;50.214;18.620;2023-04-03T14:41:13;4.60;;;2.00;;
22677;SDS011;26259;50.214;18.620;2023-04-03T14:43:40;2.67;;;1.80;;
22677;SDS011;26259;50.214;18.620;2023-04-03T14:46:16;2.57;;;1.93;;
22677;SDS011;26259;50.214;18.620;2023-04-03T14:49:02;4.10;;;1.83;;
22677;SDS011;26259;50.214;18.620;2023-04-03T14:51:32;4.73;;;2.60;;
22677;SDS011;26259;50.214;18.620;2023-04-03T14:53:59;3.33;;;1.90;;
22677;SDS011;26259;50.214;18.620;2023-04-03T14:56:27;3.40;;;1.93;;
22677;SDS011;26259;50.214;18.620;2023-04-03T14:58:59;3.97;;;1.80;;
22677;SDS011;26259;50.214;18.620;2023-04-03T15:01:26;3.53;;;2.20;;
22677;SDS011;26259;50.214;18.620;2023-04-03T15:03:53;5.07;;;2.30;;
22677;SDS011;26259;50.214;18.620;2023-04-03T15:06:19;3.80;;;2.17;;
22677;SDS011;26259;50.214;18.620;2023-04-03T15:08:45;5.47;;;2.20;;
22677;SDS011;26259;50.214;18.620;2023-04-03T15:11:12;6.50;;;2.23;;
22677;SDS011;26259;50.214;18.620;2023-04-03T15:13:39;11.80;;;2.20;;
22677;SDS011;26259;50.214;18.620;2023-04-03T15:16:06;3.77;;;2.20;;
22677;SDS011;26259;50.214;18.620;2023-04-03T15:18:40;3.87;;;2.70;;
22677;SDS011;26259;50.214;18.620;2023-04-03T15:21:06;2.53;;;1.70;;
22677;SDS011;26259;50.214;18.620;2023-04-03T15:23:31;3.30;;;2.20;;
22677;SDS011;26259;50.214;18.620;2023-04-03T15:39:24;3.40;;;1.93;;
22677;SDS011;26259;50.214;18.620;2023-04-03T15:41:50;3.13;;;1.67;;
22677;SDS011;26259;50.214;18.620;2023-04-03T15:44:17;4.03;;;2.17;;
22677;SDS011;26259;50.214;18.620;2023-04-03T15:46:44;5.83;;;2.03;;
22677;SDS011;26259;50.214;18.620;2023-04-03T15:49:11;4.60;;;1.97;;
22677;SDS011;26259;50.214;18.620;2023-04-03T15:51:38;4.60;;;2.20;;
22677;SDS011;26259;50.214;18.620;2023-04-03T15:54:04;4.33;;;2.17;;
22677;SDS011;26259;50.214;18.620;2023-04-03T15:56:29;6.73;;;2.17;;
22677;SDS011;26259;50.214;18.620;2023-04-03T15:58:55;4.73;;;2.00;;
22677;SDS011;26259;50.214;18.620;2023-04-03T16:01:21;2.63;;;2.03;;
22677;SDS011;26259;50.214;18.620;2023-04-03T16:03:50;5.13;;;2.10;;
22677;SDS011;26259;50.214;18.620;2023-04-03T16:06:16;3.00;;;2.13;;
22677;SDS011;26259;50.214;18.620;2023-04-03T16:08:43;3.27;;;2.10;;
22677;SDS011;26259;50.214;18.620;2023-04-03T16:11:09;2.83;;;1.93;;
22677;SDS011;26259;50.214;18.620;2023-04-03T16:13:35;2.23;;;1.83;;
22677;SDS011;26259;50.214;18.620;2023-04-03T16:16:00;2.20;;;2.00;;
22677;SDS011;26259;50.214;18.620;2023-04-03T16:18:27;2.80;;;1.70;;
22677;SDS011;26259;50.214;18.620;2023-04-03T16:20:53;5.23;;;2.03;;
22677;SDS011;26259;50.214;18.620;2023-04-03T16:23:19;4.23;;;2.00;;
22677;SDS011;26259;50.214;18.620;2023-04-03T16:25:45;5.20;;;2.77;;
22677;SDS011;26259;50.214;18.620;2023-04-03T16:28:15;6.47;;;2.40;;
22677;SDS011;26259;50.214;18.620;2023-04-03T16:30:42;4.33;;;2.40;;
22677;SDS011;26259;50.214;18.620;2023-04-03T16:33:10;3.90;;;2.43;;
22677;SDS011;26259;50.214;18.620;2023-04-03T16:35:37;4.33;;;2.47;;
22677;SDS011;26259;50.214;18.620;2023-04-03T16:38:02;3.83;;;2.23;;
22677;SDS011;26259;50.214;18.620;2023-04-03T16:40:28;3.60;;;2.13;;
22677;SDS011;26259;50.214;18.620;2023-04-03T16:42:54;3.60;;;2.00;;
22677;SDS011;26259;50.214;18.620;2023-04-03T16:45:20;3.73;;;2.00;;
22677;SDS011;26259;50.214;18.620;2023-04-03T16:47:45;4.77;;;2.73;;
22677;SDS011;26259;50.214;18.620;2023-04-03T16:50:11;3.23;;;1.87;;
22677;SDS011;26259;50.214;18.620;2023-04-03T16:52:36;3.80;;;1.97;;
22677;SDS011;26259;50.214;18.620;2023-04-03T16:55:02;3.63;;;2.17;;
22677;SDS011;26259;50.214;18.620;2023-04-03T16:57:28;3.77;;;2.30;;
22677;SDS011;26259;50.214;18.620;2023-04-03T16:59:54;3.80;;;2.10;;